Time;durP1;ratioP1;P1;durP2;ratioP2;P2;SDS_P1;SDS_P2;PMS_P1;PMS_P2;Temp;Humidity;BMP_temperature;BMP_pressure;BME280_temperature;BME280_humidity;BME280_pressure;Samples;Min_cycle;Max_cycle;Signal;HPM_P1;HPM_P2
2021/03/10 02:31:15;;;;;;;47.15;26.85;;;;;;;3.21;86.42;93918.42;829051;71;32741;-81
2021/03/10 02:46:17;;;;;;;55.17;28.32;;;;;;;2.81;87.27;93847.30;828557;71;32707;-85
2021/03/10 03:01:31;;;;;;;50.75;27.20;;;;;;;2.99;88.87;93897.88;834139;71;30795;-82
2021/03/10 03:16:09;;;;;;;46.95;26.00;;;;;;;2.80;90.26;93885.38;828438;71;28267;-83
2021/03/10 03:31:17;;;;;;;46.53;27.13;;;;;;;2.74;91.25;93892.09;829810;71;32806;-84
2021/03/10 03:46:15;;;;;;;45.17;25.92;;;;;;;2.75;92.19;93876.80;835813;71;33263;-83
2021/03/10 04:01:19;;;;;;;44.03;25.80;;;;;;;2.97;91.92;93889.58;829056;70;33843;-84
2021/03/10 04:16:25;;;;;;;43.17;22.95;;;;;;;2.88;91.54;93882.83;829780;71;32805;-83
2021/03/10 04:31:55;;;;;;;;;;;;;;;;;;;;;
2021/03/10 05:31:15;;;;;;;40.55;22.02;;;;;;;2.85;92.11;93845.75;827391;71;33169;-78
2021/03/10 05:46:08;;;;;;;40.75;21.33;;;;;;;2.75;92.34;93845.20;834032;71;29754;-77
2021/03/10 06:01:09;;;;;;;32.67;18.80;;;;;;;2.60;93.07;93845.94;827514;70;29774;-75
2021/03/10 06:16:14;;;;;;;33.85;19.23;;;;;;;2.55;93.50;93842.55;821053;70;31314;-76
2021/03/10 06:31:19;;;;;;;35.48;19.82;;;;;;;2.47;94.02;93830.09;827395;71;32820;-76
2021/03/10 06:46:22;;;;;;;37.65;20.25;;;;;;;2.58;94.67;93843.34;827056;71;33558;-77
2021/03/10 07:01:09;;;;;;;36.75;21.30;;;;;;;2.68;94.86;93851.67;818125;71;29794;-78
2021/03/10 07:16:10;;;;;;;40.05;21.37;;;;;;;2.70;94.29;93873.69;828104;71;29734;-78
2021/03/10 07:31:21;;;;;;;47.17;24.98;;;;;;;2.88;94.31;93876.34;807141;71;30379;-78
2021/03/10 07:46:34;;;;;;;49.67;25.25;;;;;;;2.84;93.94;93875.80;828051;71;33315;-77
2021/03/10 08:01:17;;;;;;;44.53;24.82;;;;;;;2.57;94.20;93868.44;821161;71;33237;-79
2021/03/10 08:16:14;;;;;;;46.33;25.45;;;;;;;2.45;94.64;93863.22;827122;71;32687;-76
2021/03/10 08:31:12;;;;;;;46.90;27.25;;;;;;;2.65;94.98;93837.40;819402;71;32073;-77
2021/03/10 08:46:08;;;;;;;46.02;23.52;;;;;;;2.59;95.15;93834.53;833960;71;27736;-79
2021/03/10 09:01:36;;;;;;;45.58;25.68;;;;;;;2.74;95.15;93852.72;828033;71;32838;-79
2021/03/10 09:16:20;;;;;;;45.17;25.82;;;;;;;2.85;94.79;93854.82;819603;71;32876;-75
2021/03/10 09:31:17;;;;;;;46.23;27.48;;;;;;;2.89;95.53;93863.64;827898;71;32826;-80
2021/03/10 09:46:09;;;;;;;45.17;25.32;;;;;;;3.17;94.54;93866.83;829129;71;29710;-80
2021/03/10 10:01:13;;;;;;;37.33;23.55;;;;;;;3.08;93.75;93863.97;836686;70;32061;-80
2021/03/10 10:16:10;;;;;;;38.05;21.82;;;;;;;3.04;94.30;93858.23;825517;71;29777;-79
2021/03/10 10:31:12;;;;;;;36.03;20.72;;;;;;;3.28;94.10;93861.13;828871;71;32143;-79
2021/03/10 12:01:15;;;;;;;14.75;10.68;;;;;;;3.72;87.17;93846.38;822362;71;32798;-79
2021/03/10 12:16:14;;;;;;;12.65;10.00;;;;;;;3.91;85.87;93847.91;827293;71;33147;-76
2021/03/10 12:31:19;;;;;;;14.50;10.50;;;;;;;4.05;84.81;93853.34;827652;71;32728;-80
2021/03/10 12:46:10;;;;;;;14.87;12.50;;;;;;;4.12;84.21;93866.31;828371;71;30279;-81
2021/03/10 13:01:08;;;;;;;13.28;11.63;;;;;;;4.15;83.55;93882.66;828527;71;29789;-77
2021/03/10 13:16:09;;;;;;;17.52;13.00;;;;;;;4.19;83.01;93894.59;831894;71;28718;-79
2021/03/10 13:31:10;;;;;;;28.32;19.52;;;;;;;4.19;82.04;93905.75;828832;71;30329;-78
2021/03/10 13:46:19;;;;;;;18.12;13.53;;;;;;;4.09;82.10;93925.77;828287;71;31761;-78
2021/03/10 14:01:16;;;;;;;14.98;12.20;;;;;;;3.98;82.03;93941.34;827096;71;31758;-78
2021/03/10 14:16:16;;;;;;;12.55;10.25;;;;;;;3.74;81.46;93929.91;827092;71;31777;-77
2021/03/10 14:31:09;;;;;;;11.73;9.10;;;;;;;3.26;82.67;93933.20;833643;71;28694;-75
2021/03/10 14:46:17;;;;;;;12.65;10.75;;;;;;;3.50;83.69;93945.95;827174;71;31806;-77
2021/03/10 15:01:29;;;;;;;20.37;14.55;;;;;;;3.61;83.47;93957.92;828278;71;28649;-78
2021/03/10 15:16:09;;;;;;;17.12;12.73;;;;;;;3.76;83.23;93982.33;828026;71;29358;-76
2021/03/10 15:31:08;;;;;;;11.05;8.38;;;;;;;3.75;82.30;93989.83;834253;71;28685;-79
2021/03/10 15:46:08;;;;;;;9.85;8.85;;;;;;;3.27;82.32;93950.33;819208;71;29337;-78
2021/03/10 16:01:10;;;;;;;6.67;6.08;;;;;;;3.55;82.17;94012.11;828249;71;30115;-77
2021/03/10 16:16:10;;;;;;;5.42;4.95;;;;;;;3.45;81.86;94028.94;827941;71;28709;-79
2021/03/10 18:16:43;;;;;;;;;;;;;;;;;;;;;
2021/03/10 19:16:41;;;;;;;6.87;5.70;;;;;;;3.01;80.04;94173.86;834848;71;33216;-82
2021/03/10 19:31:27;;;;;;;6.58;5.92;;;;;;;2.93;79.39;94189.86;834282;71;33240;-80
2021/03/10 22:31:31;;;;;;;7.55;6.80;;;;;;;2.45;76.95;94201.08;835083;71;32863;-83
2021/03/10 22:46:36;;;;;;;;;;;;;;;;;;;;;
2021/03/10 23:46:47;;;;;;;;;;;;;;;;;;;;;
